Time;durP1;ratioP1;P1;durP2;ratioP2;P2;SDS_P1;SDS_P2;PMS_P1;PMS_P2;Temp;Humidity;BMP_temperature;BMP_pressure;BME280_temperature;BME280_humidity;BME280_pressure;Samples;Min_cycle;Max_cycle;Signal;HPM_P1;HPM_P2
2022/08/12 00:44:28;;;;;;;2.83;1.83;;;;;;;23.89;38.76;100295.28;5011244;28;20050;-87
2022/08/12 00:47:00;;;;;;;2.30;1.80;;;;;;;23.82;39.78;100299.66;4994260;28;20046;-87
2022/08/12 00:49:29;;;;;;;2.08;1.77;;;;;;;23.80;39.31;100298.94;5011660;28;20061;-84
2022/08/12 00:52:10;;;;;;;3.45;2.20;;;;;;;23.76;39.98;100295.75;4993519;28;20046;-84
2022/08/12 00:54:43;;;;;;;2.42;1.83;;;;;;;23.70;39.82;100291.03;5013005;28;20054;-84
2022/08/12 00:57:09;;;;;;;1.98;1.83;;;;;;;23.69;39.27;100286.63;5012430;28;20577;-85
2022/08/12 00:59:42;;;;;;;5.43;1.90;;;;;;;23.63;40.04;100287.28;5011927;28;20057;-83
2022/08/12 01:02:13;;;;;;;5.47;2.05;;;;;;;23.61;39.44;100287.44;5012631;28;20053;-83
2022/08/12 01:13:00;;;;;;;2.33;1.63;;;;;;;23.48;39.83;100290.59;5016266;28;20054;-84
2022/08/12 01:15:45;;;;;;;5.22;1.95;;;;;;;23.44;39.46;100291.91;5001312;28;20085;-83
2022/08/12 01:18:13;;;;;;;4.65;1.80;;;;;;;23.40;39.88;100291.34;5016238;28;20058;-84
2022/08/12 01:21:02;;;;;;;3.17;2.33;;;;;;;23.33;39.76;100294.81;4998572;28;20045;-85
2022/08/12 01:23:55;;;;;;;3.80;2.03;;;;;;;23.32;40.19;100298.50;5028473;28;20059;-83
2022/08/12 01:26:24;;;;;;;3.72;2.10;;;;;;;23.34;40.82;100293.84;5035869;28;20132;-85
2022/08/12 01:28:56;;;;;;;4.32;2.42;;;;;;;23.27;41.13;100291.75;5035814;28;20065;-83
2022/08/12 01:31:26;;;;;;;2.60;2.13;;;;;;;23.26;41.00;100300.84;5035868;28;20053;-83
2022/08/12 01:34:03;;;;;;;4.05;2.13;;;;;;;23.17;40.57;100294.53;5035898;28;20273;-83
2022/08/12 01:36:43;;;;;;;3.17;1.80;;;;;;;23.11;40.57;100291.66;5036359;28;20057;-83
2022/08/12 01:39:09;;;;;;;2.30;1.90;;;;;;;23.11;40.63;100297.03;5017767;28;20053;-85
2022/08/12 01:41:46;;;;;;;3.03;2.15;;;;;;;23.02;41.26;100296.09;5035979;28;20132;-85
2022/08/12 01:44:21;;;;;;;6.70;1.98;;;;;;;23.02;40.95;100290.72;5036110;28;20053;-83
2022/08/12 01:47:03;;;;;;;3.55;2.17;;;;;;;22.97;41.54;100291.22;5018415;28;20084;-85
2022/08/12 01:50:07;;;;;;;3.17;2.35;;;;;;;22.90;40.99;100292.81;5038066;28;20053;-85
2022/08/12 01:52:58;;;;;;;3.97;2.10;;;;;;;22.88;41.60;100286.78;5022281;28;20046;-84
2022/08/12 01:55:34;;;;;;;5.60;2.35;;;;;;;22.85;42.20;100285.25;5022606;28;20077;-85
2022/08/12 01:58:17;;;;;;;4.03;2.10;;;;;;;22.79;42.14;100285.84;5040606;28;20054;-86
2022/08/12 02:00:57;;;;;;;5.38;2.55;;;;;;;22.75;42.12;100288.03;5040396;28;20112;-85
2022/08/12 02:13:08;;;;;;;2.80;2.08;;;;;;;22.60;41.83;100290.41;5040917;28;20053;-85
2022/08/12 02:15:50;;;;;;;4.63;2.05;;;;;;;22.57;42.21;100284.50;5041216;28;20061;-86
2022/08/12 02:18:33;;;;;;;4.45;1.95;;;;;;;22.54;42.14;100290.13;5040600;28;20502;-85
2022/08/12 02:21:04;;;;;;;2.63;2.20;;;;;;;22.51;42.77;100292.13;5039929;28;20095;-85
2022/08/12 02:23:33;;;;;;;3.53;1.75;;;;;;;22.49;42.45;100287.91;5023259;28;20049;-86
2022/08/12 02:26:08;;;;;;;3.65;1.88;;;;;;;22.44;42.17;100288.38;5042013;28;20103;-85
2022/08/12 02:28:37;;;;;;;4.95;2.10;;;;;;;22.43;42.24;100292.03;5041589;28;20053;-87
2022/08/12 02:31:05;;;;;;;2.97;1.90;;;;;;;22.42;42.62;100292.22;5040647;28;20651;-86
2022/08/12 02:33:33;;;;;;;4.80;2.03;;;;;;;22.40;42.56;100289.69;5023825;28;20045;-86
2022/08/12 02:36:01;;;;;;;4.63;2.00;;;;;;;22.38;42.90;100289.81;5041356;28;20073;-87
2022/08/12 02:38:30;;;;;;;2.65;1.80;;;;;;;22.37;43.09;100293.50;5042016;28;20057;-85
2022/08/12 02:41:00;;;;;;;4.00;1.85;;;;;;;22.36;42.93;100288.28;5041966;28;20502;-86
2022/08/12 02:43:36;;;;;;;4.20;2.00;;;;;;;22.33;43.08;100293.94;5042744;28;20041;-86
2022/08/12 02:46:09;;;;;;;9.00;2.25;;;;;;;22.32;43.43;100297.63;5042222;28;20163;-85
2022/08/12 02:48:50;;;;;;;2.13;1.83;;;;;;;22.29;42.85;100295.25;5042745;28;20053;-85
2022/08/12 02:51:22;;;;;;;4.35;1.83;;;;;;;22.30;42.42;100288.88;5036377;28;20084;-85
2022/08/12 02:53:52;;;;;;;5.32;1.85;;;;;;;22.27;43.13;100290.03;5019433;28;20058;-85
2022/08/12 02:56:39;;;;;;;5.53;2.67;;;;;;;22.28;42.85;100293.56;5037385;28;20503;-85
2022/08/12 02:59:15;;;;;;;9.07;1.88;;;;;;;22.26;43.00;100291.88;5036567;28;20778;-85
2022/08/12 03:01:49;;;;;;;7.22;2.10;;;;;;;22.23;43.13;100291.31;5020463;28;20477;-85
2022/08/12 03:04:25;;;;;;;;;;;;;;;22.22;41.50;100286.97;5019394;28;20422;-85
2022/08/12 03:07:09;;;;;;;2.08;1.88;;;;;;;22.20;42.16;100283.59;5036710;28;19925;-85
2022/08/12 03:09:46;;;;;;;1.88;1.77;;;;;;;22.17;42.55;100278.53;5019193;28;20060;-85
2022/08/12 03:12:35;;;;;;;4.97;1.90;;;;;;;22.13;42.87;100280.69;5019758;28;20056;-84
2022/08/12 03:15:16;;;;;;;5.65;2.00;;;;;;;22.07;42.93;100276.75;5034674;28;20068;-82
2022/08/12 03:17:55;;;;;;;2.40;1.70;;;;;;;22.00;42.69;100273.84;5035225;28;20093;-83
2022/08/12 03:20:42;;;;;;;1.70;1.60;;;;;;;22.00;42.40;100278.34;5019649;28;20103;-83
2022/08/12 03:23:10;;;;;;;4.18;2.03;;;;;;;21.94;42.63;100271.75;5016112;28;20048;-83
2022/08/12 03:25:59;;;;;;;4.30;1.67;;;;;;;21.91;42.36;100280.09;5034496;28;20144;-83
2022/08/12 03:31:18;;;;;;;2.20;2.00;;;;;;;21.85;42.49;100278.00;5033441;28;20053;-83
2022/08/12 03:33:46;;;;;;;2.20;1.70;;;;;;;21.82;42.20;100273.78;5033445;28;20045;-83
2022/08/12 03:36:33;;;;;;;2.88;1.85;;;;;;;21.78;42.78;100279.56;5034260;28;20056;-83
2022/08/12 03:41:56;;;;;;;2.37;1.87;;;;;;;21.68;42.57;100274.25;5035444;28;20052;-83
2022/08/12 04:01:26;;;;;;;4.30;2.00;;;;;;;21.52;42.81;100282.91;5038955;28;20413;-85
2022/08/12 04:03:54;;;;;;;5.55;2.38;;;;;;;21.47;42.71;100281.53;5039068;28;20135;-84
2022/08/12 04:06:25;;;;;;;8.43;2.58;;;;;;;21.45;43.79;100280.81;5021018;28;20049;-85
2022/08/12 04:09:04;;;;;;;3.45;2.13;;;;;;;21.45;43.52;100275.44;5036117;28;20056;-85
2022/08/12 04:14:30;;;;;;;2.83;1.83;;;;;;;21.50;43.73;100280.38;5034296;28;20057;-85
2022/08/12 04:16:57;;;;;;;5.53;2.42;;;;;;;21.51;43.69;100279.38;5033802;28;20396;-84
2022/08/12 04:19:25;;;;;;;3.55;1.90;;;;;;;21.51;43.96;100282.06;5034193;28;20072;-84
2022/08/12 04:21:54;;;;;;;6.30;2.03;;;;;;;21.53;43.70;100277.38;5034055;28;20103;-85
2022/08/12 04:24:35;;;;;;;4.70;2.30;;;;;;;21.53;44.34;100284.59;5034525;28;20053;-86
2022/08/12 04:27:07;;;;;;;5.10;2.30;;;;;;;21.53;43.97;100282.75;5034947;28;20049;-85
2022/08/12 04:29:36;;;;;;;6.38;2.45;;;;;;;21.54;44.08;100280.91;5035184;28;20077;-86
2022/08/12 04:32:23;;;;;;;7.35;2.75;;;;;;;21.55;44.05;100282.59;5034516;28;20065;-85
2022/08/12 04:34:50;;;;;;;5.05;2.13;;;;;;;21.54;43.96;100279.09;5019501;28;20060;-84
2022/08/12 04:37:17;;;;;;;3.20;2.47;;;;;;;21.53;44.25;100281.91;5039386;28;20049;-84
2022/08/12 04:39:47;;;;;;;4.10;2.35;;;;;;;21.52;44.51;100280.25;5037359;28;20056;-86
2022/08/12 04:42:15;;;;;;;4.40;2.25;;;;;;;21.54;44.66;100284.47;5035938;28;20045;-87
2022/08/12 04:44:42;;;;;;;3.58;2.58;;;;;;;21.54;44.62;100287.13;5035729;28;20082;-84
2022/08/12 04:47:13;;;;;;;5.22;2.80;;;;;;;21.51;44.66;100276.69;5036436;28;20096;-87
2022/08/12 04:49:42;;;;;;;4.65;3.20;;;;;;;21.52;44.34;100274.88;5018301;28;20053;-86
2022/08/12 04:52:09;;;;;;;4.97;3.40;;;;;;;21.51;44.63;100274.03;5017207;28;20050;-85
2022/08/12 04:54:36;;;;;;;5.43;3.45;;;;;;;21.51;44.58;100276.69;5032914;28;20057;-84
2022/08/12 04:57:04;;;;;;;4.18;3.22;;;;;;;21.52;45.05;100269.53;5015422;28;20049;-85
2022/08/12 04:59:32;;;;;;;6.82;3.65;;;;;;;21.53;45.08;100276.56;5034967;28;20063;-84
2022/08/12 05:02:18;;;;;;;6.28;3.55;;;;;;;21.52;45.51;100273.03;5030336;28;20054;-82
2022/08/12 05:04:50;;;;;;;5.68;3.72;;;;;;;21.54;45.23;100276.41;5041536;28;20084;-86
2022/08/12 05:07:18;;;;;;;9.63;4.38;;;;;;;21.54;44.82;100267.53;5024491;28;20053;-82
2022/08/12 05:09:45;;;;;;;8.45;4.43;;;;;;;21.54;45.21;100270.22;5024970;28;20060;-82
2022/08/12 05:12:32;;;;;;;6.57;4.40;;;;;;;21.54;45.88;100265.72;5026327;28;20112;-82
2022/08/12 05:14:59;;;;;;;8.40;4.43;;;;;;;21.55;45.11;100270.06;5024196;28;20045;-82
2022/08/12 05:17:26;;;;;;;5.55;4.18;;;;;;;21.55;45.11;100272.75;5021562;28;20049;-82
2022/08/12 05:19:54;;;;;;;6.15;4.22;;;;;;;21.55;45.29;100271.88;5022148;28;20139;-82
2022/08/12 05:22:25;;;;;;;6.63;3.88;;;;;;;21.56;45.05;100276.25;5023188;28;20808;-82
2022/08/12 05:24:51;;;;;;;9.45;4.47;;;;;;;21.57;45.60;100272.59;5023624;28;20070;-82
2022/08/12 05:27:18;;;;;;;7.05;4.50;;;;;;;21.58;45.46;100274.28;5024289;28;20060;-83
2022/08/12 05:29:48;;;;;;;7.57;4.40;;;;;;;21.60;45.46;100274.97;5041999;28;20050;-83
2022/08/12 05:32:35;;;;;;;9.30;3.85;;;;;;;21.64;45.62;100278.22;5027550;28;20513;-82
2022/08/12 05:35:05;;;;;;;4.38;3.53;;;;;;;21.66;45.97;100282.44;5040377;28;20136;-82
2022/08/12 05:37:33;;;;;;;6.38;3.25;;;;;;;21.68;45.73;100279.59;5041240;28;20076;-81
2022/08/12 05:40:02;;;;;;;6.18;3.25;;;;;;;21.69;45.86;100276.78;5042216;28;20391;-82
2022/08/12 05:42:38;;;;;;;6.60;3.47;;;;;;;21.71;45.72;100282.81;5045023;28;20073;-83
2022/08/12 05:45:12;;;;;;;6.85;3.50;;;;;;;21.73;45.84;100283.56;5014900;28;20049;-84
2022/08/12 05:47:42;;;;;;;4.68;2.60;;;;;;;21.75;45.83;100283.41;5047022;28;20065;-85
2022/08/12 05:50:19;;;;;;;4.72;3.20;;;;;;;21.80;46.14;100286.50;5027963;28;20057;-82
2022/08/12 05:52:49;;;;;;;5.95;3.10;;;;;;;21.80;45.80;100291.84;5043620;28;20053;-83
2022/08/12 05:55:19;;;;;;;;;;;;;;;21.84;44.82;100284.34;5042005;28;20053;-83
2022/08/12 05:57:54;;;;;;;4.35;2.78;;;;;;;21.90;45.43;100282.94;5045951;28;19920;-83
2022/08/12 06:00:25;;;;;;;3.40;2.90;;;;;;;21.94;45.50;100284.31;5045320;28;20072;-84
2022/08/12 06:03:07;;;;;;;3.70;2.95;;;;;;;21.94;45.33;100285.13;5025994;28;20053;-83
2022/08/12 06:05:43;;;;;;;5.97;2.83;;;;;;;21.98;45.12;100283.84;5025681;28;20348;-84
2022/08/12 06:08:22;;;;;;;4.88;2.60;;;;;;;22.03;45.40;100287.91;5025408;28;20104;-83
2022/08/12 06:10:49;;;;;;;3.97;2.67;;;;;;;22.08;45.15;100282.94;5025322;28;20541;-83
2022/08/12 06:13:17;;;;;;;3.17;2.50;;;;;;;22.13;45.58;100283.38;5024560;28;20056;-83
2022/08/12 06:16:11;;;;;;;6.50;2.60;;;;;;;22.20;45.76;100288.97;5023040;28;20085;-82
2022/08/12 06:18:48;;;;;;;3.50;2.50;;;;;;;22.25;45.66;100290.19;5025416;28;20062;-83
2022/08/12 06:21:17;;;;;;;3.80;2.70;;;;;;;22.33;45.69;100291.28;5024343;28;20054;-82
2022/08/12 06:23:55;;;;;;;4.32;2.53;;;;;;;22.39;45.69;100293.38;5003403;28;20120;-82
2022/08/12 06:26:21;;;;;;;4.72;2.67;;;;;;;22.46;45.81;100289.06;5025751;28;20053;-84
2022/08/12 06:28:59;;;;;;;6.03;2.30;;;;;;;22.54;45.69;100292.81;5022369;28;20049;-83
2022/08/12 06:31:26;;;;;;;5.22;2.65;;;;;;;22.61;46.01;100288.56;5023242;28;20049;-83
2022/08/12 06:33:56;;;;;;;3.67;2.60;;;;;;;22.68;46.33;100292.31;5023480;28;20056;-83
2022/08/12 06:36:48;;;;;;;4.60;2.47;;;;;;;22.74;45.73;100290.84;5021872;28;20053;-82
2022/08/12 06:39:23;;;;;;;6.40;2.20;;;;;;;22.83;45.47;100281.88;5021220;28;20045;-82
2022/08/12 06:44:55;;;;;;;3.08;2.17;;;;;;;23.03;45.25;100287.06;5020110;28;20103;-82
2022/08/12 06:47:21;;;;;;;3.50;2.20;;;;;;;23.13;45.01;100285.13;5019372;28;20056;-82
2022/08/12 06:49:48;;;;;;;7.43;2.10;;;;;;;23.22;44.88;100286.03;5021772;28;20060;-84
2022/08/12 06:52:16;;;;;;;3.50;2.15;;;;;;;23.30;44.27;100280.69;5026220;28;20081;-84
2022/08/12 06:54:45;;;;;;;8.25;2.10;;;;;;;23.41;43.56;100286.84;5025231;28;20069;-84
2022/08/12 06:57:12;;;;;;;4.72;2.00;;;;;;;23.53;43.63;100290.09;5026420;28;20054;-83
2022/08/12 07:00:10;;;;;;;4.25;2.40;;;;;;;23.64;43.82;100280.91;5026618;28;20058;-83
2022/08/12 07:02:36;;;;;;;4.05;1.95;;;;;;;23.78;42.78;100282.97;5025104;28;20073;-83
2022/08/12 07:05:03;;;;;;;4.93;2.40;;;;;;;23.88;42.30;100287.41;5025532;28;20138;-82
2022/08/12 07:07:30;;;;;;;5.22;2.28;;;;;;;24.00;42.34;100293.34;5024908;28;20061;-82
2022/08/12 07:09:57;;;;;;;2.70;1.88;;;;;;;24.10;42.22;100288.69;5025140;28;20077;-84
2022/08/12 07:12:33;;;;;;;5.47;1.98;;;;;;;24.23;42.54;100293.59;5026019;28;20105;-84
2022/08/12 07:15:00;;;;;;;4.53;2.20;;;;;;;24.32;42.72;100292.63;5026415;28;20061;-83
2022/08/12 07:17:35;;;;;;;3.03;2.10;;;;;;;24.44;42.71;100293.13;5026950;28;20050;-83
2022/08/12 07:20:11;;;;;;;2.88;2.28;;;;;;;24.53;42.44;100298.53;5026731;28;20050;-83
2022/08/12 07:23:05;;;;;;;3.35;2.85;;;;;;;24.66;41.58;100303.41;5012053;28;20046;-83
2022/08/12 07:25:33;;;;;;;5.10;2.42;;;;;;;24.72;41.66;100300.06;5026032;28;20077;-83
2022/08/12 07:28:13;;;;;;;2.67;2.28;;;;;;;24.80;41.45;100296.53;5026565;28;20112;-82
2022/08/12 07:30:44;;;;;;;4.85;2.58;;;;;;;24.91;41.37;100298.06;5025674;28;20166;-83
2022/08/12 07:33:11;;;;;;;3.15;2.80;;;;;;;24.99;41.25;100306.16;5008288;28;20053;-82
2022/08/12 07:35:44;;;;;;;7.32;2.65;;;;;;;25.07;41.06;100302.59;5026046;28;20210;-82
2022/08/12 07:38:33;;;;;;;3.85;2.78;;;;;;;25.12;40.82;100302.97;5007815;28;20050;-83
2022/08/12 07:41:09;;;;;;;6.65;2.85;;;;;;;25.26;40.95;100311.34;5025935;28;20049;-83
2022/08/12 07:43:53;;;;;;;6.47;3.63;;;;;;;25.34;40.64;100309.47;5005805;28;20117;-85
2022/08/12 07:46:24;;;;;;;6.32;3.40;;;;;;;25.46;40.70;100318.03;5001974;28;20419;-85
2022/08/12 07:48:53;;;;;;;6.95;3.05;;;;;;;25.54;40.17;100303.72;5003946;28;20050;-85
2022/08/12 07:51:32;;;;;;;3.83;3.15;;;;;;;25.63;40.49;100305.41;5016315;28;20056;-86
2022/08/12 07:54:00;;;;;;;3.90;2.33;;;;;;;25.76;40.82;100312.09;4998395;28;20045;-85
2022/08/12 07:56:29;;;;;;;2.90;2.33;;;;;;;25.85;39.71;100316.44;5018608;28;20058;-85
2022/08/12 07:58:57;;;;;;;3.78;2.55;;;;;;;25.96;39.67;100317.06;5018318;28;20104;-85
2022/08/12 08:01:25;;;;;;;5.97;2.50;;;;;;;26.05;38.96;100318.69;5020477;28;20065;-85
2022/08/12 08:06:45;;;;;;;4.70;2.30;;;;;;;26.27;39.21;100318.97;5019905;28;20050;-84
2022/08/12 08:09:14;;;;;;;3.17;2.40;;;;;;;26.36;39.36;100320.63;5017692;28;20050;-85
2022/08/12 08:14:27;;;;;;;4.03;2.10;;;;;;;26.58;38.94;100322.66;5018784;28;20042;-85
2022/08/12 08:16:56;;;;;;;4.40;2.38;;;;;;;26.66;38.96;100315.31;5019875;28;20053;-85
2022/08/12 08:19:24;;;;;;;4.82;2.00;;;;;;;26.78;39.45;100320.31;5001207;28;20050;-86
2022/08/12 08:21:53;;;;;;;2.22;1.83;;;;;;;26.88;38.89;100315.50;5017488;28;20054;-83
2022/08/12 08:24:23;;;;;;;3.05;2.10;;;;;;;26.99;38.49;100325.06;5013256;28;20049;-85
2022/08/12 08:26:51;;;;;;;2.70;1.90;;;;;;;27.11;38.57;100324.63;5013266;28;20065;-83
2022/08/12 08:29:22;;;;;;;1.95;1.60;;;;;;;27.23;38.85;100327.72;5013463;28;20108;-85
2022/08/12 08:31:52;;;;;;;2.85;2.00;;;;;;;27.33;37.68;100320.22;5013658;28;20060;-83
2022/08/12 08:34:20;;;;;;;3.25;2.25;;;;;;;27.44;37.44;100317.03;5012929;28;20076;-85
2022/08/12 08:37:07;;;;;;;5.70;2.08;;;;;;;27.58;37.88;100319.91;5012891;28;20113;-85
2022/08/12 08:39:40;;;;;;;2.20;1.83;;;;;;;27.68;38.22;100323.25;5012552;28;20054;-83
2022/08/12 08:44:57;;;;;;;2.03;1.58;;;;;;;27.92;38.19;100323.13;5014678;28;20060;-85
2022/08/12 08:47:24;;;;;;;3.63;2.00;;;;;;;28.01;38.17;100316.59;5014257;28;20088;-85
2022/08/12 08:49:51;;;;;;;3.75;1.92;;;;;;;28.13;37.94;100310.66;5014610;28;20058;-84
2022/08/12 08:52:22;;;;;;;4.20;1.90;;;;;;;28.23;38.02;100309.31;5013861;28;20508;-85
2022/08/12 08:55:12;;;;;;;8.80;2.20;;;;;;;28.38;37.88;100318.47;5015815;28;20049;-84
2022/08/12 08:57:42;;;;;;;2.28;1.67;;;;;;;28.49;37.92;100321.50;5013944;28;20054;-85
2022/08/12 09:00:15;;;;;;;4.03;1.77;;;;;;;28.60;37.90;100316.63;5013268;28;20097;-85
2022/08/12 09:02:43;;;;;;;5.95;2.03;;;;;;;28.72;37.45;100314.22;5014017;28;20061;-85
2022/08/12 09:05:24;;;;;;;3.15;1.77;;;;;;;28.84;37.18;100318.09;4998223;28;20057;-85
2022/08/12 09:07:51;;;;;;;7.15;2.17;;;;;;;28.96;38.04;100320.28;5013563;28;20131;-85
2022/08/12 09:10:38;;;;;;;2.42;1.70;;;;;;;29.07;37.56;100321.63;5013470;28;20118;-86
2022/08/12 09:13:31;;;;;;;11.73;2.20;;;;;;;29.18;37.14;100312.13;5013484;28;20054;-85
2022/08/12 09:16:18;;;;;;;3.00;1.75;;;;;;;29.32;36.97;100313.91;5013473;28;20058;-83
2022/08/12 09:18:47;;;;;;;2.17;1.58;;;;;;;29.41;36.57;100309.16;5013855;28;20077;-84
2022/08/12 09:21:33;;;;;;;4.53;1.80;;;;;;;29.55;36.50;100311.97;5013534;28;20565;-85
2022/08/12 09:24:20;;;;;;;3.33;1.40;;;;;;;29.67;36.41;100304.94;5013886;28;20050;-84
2022/08/12 09:26:47;;;;;;;3.72;1.70;;;;;;;29.79;36.55;100307.94;5013029;28;20282;-83
2022/08/12 09:29:19;;;;;;;3.70;1.63;;;;;;;29.88;35.97;100305.88;5012783;28;20133;-85
2022/08/12 09:32:05;;;;;;;6.35;1.92;;;;;;;30.00;34.86;100301.56;5017059;28;20421;-83
2022/08/12 09:34:36;;;;;;;1.95;1.40;;;;;;;30.11;34.70;100307.44;5016383;28;20042;-83
2022/08/12 09:37:09;;;;;;;6.45;1.60;;;;;;;30.21;34.85;100304.38;5016590;28;20077;-83
2022/08/12 09:39:47;;;;;;;4.38;1.65;;;;;;;30.30;34.54;100303.13;5016671;28;20050;-83
2022/08/12 09:45:45;;;;;;;9.50;2.17;;;;;;;30.52;34.41;100301.09;5016812;28;20054;-84
2022/08/12 09:48:33;;;;;;;2.30;1.70;;;;;;;30.64;33.24;100297.75;5016507;28;20112;-83
2022/08/12 09:51:09;;;;;;;6.70;1.77;;;;;;;30.72;33.04;100296.72;5016177;28;20495;-84
2022/08/12 09:53:48;;;;;;;1.60;1.50;;;;;;;30.81;32.96;100288.19;5016953;28;20052;-84
2022/08/12 09:56:35;;;;;;;1.75;1.30;;;;;;;30.91;33.33;100290.47;5015781;28;20503;-83
2022/08/12 09:59:22;;;;;;;3.35;1.58;;;;;;;31.01;33.06;100289.22;5015790;28;20049;-85
2022/08/12 10:02:11;;;;;;;2.58;1.58;;;;;;;31.12;33.43;100290.44;5016160;28;20474;-85
2022/08/12 10:04:59;;;;;;;6.05;1.55;;;;;;;31.22;32.11;100290.88;5015833;28;20054;-84
2022/08/12 10:07:29;;;;;;;1.73;1.40;;;;;;;31.31;31.69;100292.34;5016014;28;20499;-84
2022/08/12 10:10:08;;;;;;;3.70;1.67;;;;;;;31.40;31.47;100287.50;5015873;28;20054;-84
2022/08/12 10:15:40;;;;;;;1.98;1.50;;;;;;;31.63;31.16;100283.47;5016109;28;20422;-84
2022/08/12 10:18:31;;;;;;;2.72;1.40;;;;;;;31.71;30.51;100275.06;5016418;28;20053;-84
2022/08/12 10:20:58;;;;;;;5.03;1.80;;;;;;;31.81;30.18;100262.88;5016349;28;20057;-83
2022/08/12 10:23:27;;;;;;;2.28;1.42;;;;;;;31.89;29.81;100270.00;4998295;28;20054;-84
2022/08/12 10:32:19;;;;;;;3.22;1.30;;;;;;;32.15;28.30;100258.13;5015209;28;20105;-84
2022/08/12 10:35:07;;;;;;;2.33;1.20;;;;;;;32.22;28.00;100248.00;5015590;28;20050;-84
2022/08/12 10:37:34;;;;;;;2.40;1.30;;;;;;;32.29;27.94;100258.84;5015552;28;20049;-83
2022/08/12 10:40:21;;;;;;;5.63;1.38;;;;;;;32.35;27.96;100252.53;5015645;28;20050;-85
2022/08/12 10:45:42;;;;;;;1.73;1.42;;;;;;;32.49;27.26;100252.47;5016225;28;20052;-85
2022/08/12 10:48:11;;;;;;;3.85;0.90;;;;;;;32.55;26.76;100248.03;4999045;28;20074;-85
2022/08/12 10:50:53;;;;;;;2.70;1.10;;;;;;;32.64;27.73;100243.97;5017028;28;20526;-84
2022/08/12 10:53:32;;;;;;;3.20;1.15;;;;;;;32.75;27.18;100232.31;5018677;28;20064;-83
2022/08/12 10:56:16;;;;;;;3.17;1.13;;;;;;;32.93;27.30;100235.31;5020403;28;20050;-85
2022/08/12 10:58:44;;;;;;;1.25;1.15;;;;;;;33.13;27.52;100241.44;5019523;28;20064;-84
2022/08/12 11:01:14;;;;;;;3.45;1.33;;;;;;;33.40;27.03;100232.94;5019437;28;20050;-83
2022/08/12 11:04:01;;;;;;;1.05;1.00;;;;;;;33.83;26.45;100232.22;5017121;28;20050;-85
2022/08/12 11:06:49;;;;;;;2.47;0.95;;;;;;;34.36;26.57;100232.53;5019480;28;20057;-85
2022/08/12 11:09:37;;;;;;;2.40;1.10;;;;;;;35.01;25.99;100224.53;5018755;28;20082;-83
2022/08/12 11:12:22;;;;;;;3.03;1.00;;;;;;;35.68;25.21;100220.47;5017323;28;20057;-83
2022/08/12 11:15:08;;;;;;;1.00;0.90;;;;;;;36.36;25.04;100216.22;5017978;28;20090;-84
2022/08/12 11:17:47;;;;;;;1.85;1.02;;;;;;;37.00;24.28;100208.66;5018155;28;20050;-84
2022/08/12 11:20:19;;;;;;;1.42;0.93;;;;;;;37.58;23.22;100213.78;5018591;28;20653;-84
2022/08/12 11:22:56;;;;;;;1.67;1.05;;;;;;;38.09;22.63;100206.34;5017835;28;20060;-85
2022/08/12 11:25:25;;;;;;;1.75;0.98;;;;;;;38.60;22.50;100208.69;5017996;28;20411;-84
2022/08/12 11:28:12;;;;;;;1.25;0.95;;;;;;;39.11;23.17;100207.34;5001421;28;20082;-84
2022/08/12 11:30:40;;;;;;;2.17;0.93;;;;;;;39.51;21.67;100199.53;4996795;28;20060;-85
2022/08/12 11:33:07;;;;;;;0.85;0.80;;;;;;;39.87;20.50;100193.25;5016097;28;20046;-85
2022/08/12 11:35:43;;;;;;;5.40;1.05;;;;;;;40.20;20.05;100191.09;5014649;28;20473;-84
2022/08/12 11:38:10;;;;;;;2.40;1.00;;;;;;;40.47;19.67;100194.69;5015072;28;20139;-85
2022/08/12 11:40:45;;;;;;;1.40;1.00;;;;;;;40.71;19.36;100189.38;5022344;28;20414;-85
2022/08/12 11:43:12;;;;;;;1.88;1.00;;;;;;;40.93;18.95;100187.41;5002878;28;20547;-85
2022/08/12 11:45:46;;;;;;;3.78;1.17;;;;;;;41.09;18.75;100180.72;5021085;28;20045;-85
2022/08/12 11:48:19;;;;;;;1.42;0.93;;;;;;;41.24;18.14;100193.59;5020515;28;20073;-85
2022/08/12 11:50:55;;;;;;;2.88;1.13;;;;;;;41.35;17.96;100194.41;5002027;28;20054;-85
2022/08/12 11:53:22;;;;;;;1.45;0.93;;;;;;;41.46;18.49;100192.41;5018277;28;20054;-84
2022/08/12 11:56:09;;;;;;;2.90;1.00;;;;;;;41.60;18.44;100178.78;5019461;28;20054;-84
2022/08/12 11:58:37;;;;;;;1.48;1.10;;;;;;;41.71;17.56;100170.41;5019099;28;20527;-84
2022/08/12 12:01:24;;;;;;;2.55;1.00;;;;;;;41.87;17.23;100179.44;5018199;28;20070;-84
2022/08/12 12:04:10;;;;;;;3.95;1.10;;;;;;;42.02;17.93;100172.97;5016649;28;20093;-83
2022/08/12 12:06:37;;;;;;;1.33;1.23;;;;;;;42.16;17.38;100171.16;5019587;28;20049;-84
2022/08/12 12:09:04;;;;;;;1.08;1.00;;;;;;;42.29;17.24;100169.69;5017937;28;20054;-85
2022/08/12 12:11:37;;;;;;;2.38;1.10;;;;;;;42.45;18.52;100164.03;5021060;28;20066;-84
2022/08/12 12:14:14;;;;;;;1.38;0.95;;;;;;;42.65;17.37;100164.94;5001469;28;20124;-85
2022/08/12 12:16:46;;;;;;;3.90;1.10;;;;;;;42.85;17.23;100169.38;5020667;28;20084;-84
2022/08/12 12:19:19;;;;;;;2.90;0.95;;;;;;;43.04;16.58;100163.09;5006498;28;20060;-84
2022/08/12 12:21:48;;;;;;;2.25;0.90;;;;;;;43.21;17.25;100165.34;5020531;28;20054;-84
2022/08/12 12:24:16;;;;;;;1.10;1.00;;;;;;;43.39;16.52;100171.19;5018891;28;20146;-84
2022/08/12 12:26:51;;;;;;;1.67;0.90;;;;;;;43.56;16.64;100160.44;5020525;28;20103;-83
2022/08/12 12:29:31;;;;;;;1.60;1.10;;;;;;;43.70;15.92;100166.03;5005212;28;20078;-83
2022/08/12 12:32:18;;;;;;;1.40;1.00;;;;;;;43.85;16.62;100156.66;5005463;28;20049;-83
2022/08/12 12:34:55;;;;;;;1.40;0.90;;;;;;;44.00;17.55;100155.59;5022590;28;20104;-84
2022/08/12 12:38:02;;;;;;;1.00;0.85;;;;;;;44.18;17.01;100149.44;5007098;28;20054;-83
2022/08/12 12:40:46;;;;;;;2.00;0.85;;;;;;;44.42;16.37;100152.06;5003113;28;20054;-83
2022/08/12 12:43:17;;;;;;;3.90;1.00;;;;;;;44.63;15.77;100146.09;5023046;28;20050;-83
2022/08/12 12:46:04;;;;;;;2.17;1.02;;;;;;;44.80;15.28;100148.28;5009322;28;20107;-82
2022/08/12 12:48:33;;;;;;;2.90;1.05;;;;;;;44.90;14.94;100147.22;5021693;28;20076;-82
2022/08/12 12:51:15;;;;;;;1.88;1.10;;;;;;;45.02;15.41;100135.59;5015967;28;20495;-84
2022/08/12 12:54:02;;;;;;;2.05;0.75;;;;;;;45.15;15.22;100140.31;5013825;28;20293;-84
2022/08/12 12:56:39;;;;;;;3.05;1.10;;;;;;;45.25;15.28;100125.38;5016955;28;20076;-84
2022/08/12 12:59:07;;;;;;;1.70;1.40;;;;;;;45.37;14.75;100130.38;5017385;28;20081;-84
2022/08/12 13:01:54;;;;;;;1.00;0.93;;;;;;;45.55;14.56;100134.13;5016315;28;20049;-84
2022/08/12 13:04:21;;;;;;;1.27;1.10;;;;;;;45.67;14.50;100127.97;5015393;28;20081;-83
2022/08/12 13:06:51;;;;;;;1.98;1.05;;;;;;;45.78;14.07;100128.53;5015364;28;20058;-86
2022/08/12 13:09:18;;;;;;;2.05;1.05;;;;;;;45.86;14.73;100128.94;5013052;28;20041;-84
2022/08/12 13:11:49;;;;;;;1.50;1.10;;;;;;;45.92;14.75;100128.50;5014657;28;20060;-84
2022/08/12 13:14:20;;;;;;;1.58;1.05;;;;;;;46.01;14.58;100124.94;5014463;28;20053;-84
2022/08/12 13:16:59;;;;;;;1.33;0.90;;;;;;;46.13;14.61;100125.16;5013699;28;20050;-83
2022/08/12 13:19:30;;;;;;;1.70;1.02;;;;;;;46.25;14.66;100121.78;5013044;28;20061;-84
2022/08/12 13:22:16;;;;;;;1.30;0.98;;;;;;;46.39;14.85;100124.47;4996722;28;20060;-84
2022/08/12 13:24:50;;;;;;;1.15;1.05;;;;;;;46.52;13.41;100119.91;4994658;28;20050;-83
2022/08/12 13:27:30;;;;;;;2.95;0.95;;;;;;;46.66;13.38;100116.19;4979029;28;20415;-84
2022/08/12 13:30:08;;;;;;;2.08;0.98;;;;;;;46.82;13.96;100113.81;4993661;28;20054;-84
2022/08/12 13:32:44;;;;;;;2.08;0.98;;;;;;;46.93;14.58;100114.31;4982110;28;20050;-84
2022/08/12 13:35:26;;;;;;;2.00;1.00;;;;;;;47.10;13.54;100114.34;4991493;28;20502;-83
2022/08/12 13:38:12;;;;;;;1.52;1.40;;;;;;;47.25;13.41;100115.00;4990990;28;20057;-83
2022/08/12 13:40:39;;;;;;;2.20;0.98;;;;;;;47.37;13.23;100108.75;4991706;28;20070;-83
2022/08/12 13:43:06;;;;;;;3.28;1.02;;;;;;;47.49;13.36;100108.09;4991399;28;20455;-84
2022/08/12 13:45:34;;;;;;;1.30;1.10;;;;;;;47.61;12.99;100111.03;4991321;28;20097;-85
2022/08/12 13:48:06;;;;;;;2.00;1.30;;;;;;;47.70;13.12;100115.78;4991923;28;20074;-84
2022/08/12 13:50:35;;;;;;;0.98;0.88;;;;;;;47.79;13.02;100110.97;5001083;28;20087;-82
2022/08/12 13:53:04;;;;;;;1.25;1.10;;;;;;;47.82;12.52;100112.28;5001936;28;20339;-82
2022/08/12 13:55:50;;;;;;;4.55;1.00;;;;;;;47.85;12.58;100097.72;5003556;28;20077;-83